Time;durP1;ratioP1;P1;durP2;ratioP2;P2;SDS_P1;SDS_P2;PMS_P1;PMS_P2;Temp;Humidity;BMP_temperature;BMP_pressure;BME280_temperature;BME280_humidity;BME280_pressure;Samples;Min_cycle;Max_cycle;Signal;HPM_P1;HPM_P2
2020/12/05 00:00:43;;;;;;;;;;;;;;;8.40;67.68;96999.81;1651282;85;26357;-86
2020/12/05 00:03:29;;;;;;;;;;;;;;;8.44;67.67;96986.89;1659144;85;24898;-85
2020/12/05 00:06:15;;;;;;;;;;;;;;;8.49;67.67;97009.49;1664772;85;20365;-85
2020/12/05 00:09:02;;;;;;;;;;;;;;;8.54;67.69;97016.92;1658282;85;25979;-85
2020/12/05 00:11:48;;;;;;;;;;;;;;;8.59;67.72;96999.94;1657180;85;22217;-85
2020/12/05 00:14:35;;;;;;;;;;;;;;;8.62;67.71;97005.38;1664660;84;26137;-85
2020/12/05 00:17:22;;;;;;;;;;;;;;;8.61;67.72;97019.37;1660159;85;24601;-85
2020/12/05 00:20:08;;;;;;;;;;;;;;;8.61;67.73;96998.03;1656953;85;20301;-84
2020/12/05 00:22:53;;;;;;;;;;;;;;;8.66;67.72;97011.51;1653213;85;26205;-85
2020/12/05 00:25:39;;;;;;;;;;;;;;;8.67;67.71;97009.22;1660187;85;22094;-85
2020/12/05 00:28:25;;;;;;;;;;;;;;;8.66;67.72;97006.77;1661611;85;26196;-85
2020/12/05 00:31:11;;;;;;;;;;;;;;;8.65;67.72;97012.45;1655847;85;24617;-85
2020/12/05 00:33:57;;;;;;;;;;;;;;;8.69;67.70;96993.45;1659722;85;20280;-85
2020/12/05 00:36:43;;;;;;;;;;;;;;;8.70;67.72;97003.77;1641422;85;25124;-84
2020/12/05 00:39:29;;;;;;;;;;;;;;;8.73;67.68;97010.48;1658071;85;22158;-85
2020/12/05 00:42:15;;;;;;;;;;;;;;;8.70;67.69;97011.59;1662995;85;26078;-85
2020/12/05 00:45:05;;;;;;;;;;;;;;;8.71;67.68;97013.72;1665296;85;24852;-85
2020/12/05 00:47:52;;;;;;;;;;;;;;;8.70;67.67;97022.02;1633462;85;35535;-85
2020/12/05 00:50:41;;;;;;;;;;;;;;;8.70;67.67;97022.02;1651967;85;25144;-85
2020/12/05 00:53:27;;;;;;;;;;;;;;;8.72;67.67;97028.41;1658978;85;22145;-84
2020/12/05 00:56:13;;;;;;;;;;;;;;;8.69;67.63;97017.75;1651645;85;26310;-85
2020/12/05 00:59:00;;;;;;;;;;;;;;;8.71;67.64;97032.80;1656013;85;24053;-85
2020/12/05 01:01:46;;;;;;;;;;;;;;;8.70;67.64;97027.71;1654896;85;20406;-85
2020/12/05 01:04:32;;;;;;;;;;;;;;;8.67;67.62;97026.67;1658178;85;25386;-85
2020/12/05 01:07:19;;;;;;;;;;;;;;;8.64;67.61;97019.92;1661810;85;22178;-85
2020/12/05 01:10:04;;;;;;;;;;;;;;;8.64;67.60;97018.63;1658408;85;26238;-84
2020/12/05 01:12:50;;;;;;;;;;;;;;;8.62;67.62;97014.51;1652423;84;24711;-85
2020/12/05 01:15:36;;;;;;;;;;;;;;;8.59;67.62;97014.75;1648410;85;20269;-85
2020/12/05 01:18:22;;;;;;;;;;;;;;;8.58;67.62;97015.70;1658656;85;26017;-84
2020/12/05 01:21:08;;;;;;;;;;;;;;;8.65;67.62;97022.89;1655589;85;22133;-84
2020/12/05 01:23:54;;;;;;;;;;;;;;;8.64;67.64;97016.48;1644301;86;26247;-84
2020/12/05 01:26:44;;;;;;;;;;;;;;;8.51;67.63;97020.59;1658230;85;24617;-84
2020/12/05 01:29:31;;;;;;;;;;;;;;;8.49;67.61;97011.27;1662151;85;20909;-84
2020/12/05 01:32:17;;;;;;;;;;;;;;;8.53;67.60;96993.10;1666263;84;26124;-85
2020/12/05 01:35:03;;;;;;;;;;;;;;;8.57;67.59;97004.91;1613329;88;22357;-85
2020/12/05 01:37:51;;;;;;;;;;;;;;;8.59;67.59;97008.23;1648283;86;26128;-84
2020/12/05 01:40:37;;;;;;;;;;;;;;;8.57;67.59;97008.35;1649568;86;24598;-85
2020/12/05 01:43:24;;;;;;;;;;;;;;;8.57;67.58;97012.27;1650486;84;20358;-85
2020/12/05 01:46:11;;;;;;;;;;;;;;;8.57;67.54;97012.73;1677957;84;25605;-85
2020/12/05 01:48:57;;;;;;;;;;;;;;;8.59;67.54;97007.76;1675496;84;22151;-85
2020/12/05 01:51:43;;;;;;;;;;;;;;;8.67;67.50;97000.09;1677514;84;26375;-84
2020/12/05 01:54:29;;;;;;;;;;;;;;;8.71;67.51;97006.72;1677727;85;25476;-85
2020/12/05 01:57:17;;;;;;;;;;;;;;;8.71;67.50;97006.72;1681384;84;20591;-86
2020/12/05 02:00:02;;;;;;;;;;;;;;;8.70;67.50;97013.36;1682142;84;25235;-85
2020/12/05 02:02:48;;;;;;;;;;;;;;;8.71;67.50;97000.20;1676676;84;22168;-85
2020/12/05 02:05:35;;;;;;;;;;;;;;;8.73;67.47;97007.40;1678841;84;27100;-85
2020/12/05 02:08:21;;;;;;;;;;;;;;;8.72;67.46;97024.03;1672621;85;24648;-85
2020/12/05 02:11:07;;;;;;;;;;;;;;;8.73;67.45;97013.92;1682685;84;20287;-85
2020/12/05 02:13:53;;;;;;;;;;;;;;;8.75;67.44;97008.11;1676557;84;24978;-85
2020/12/05 02:16:40;;;;;;;;;;;;;;;8.80;67.42;97023.36;1678682;84;22214;-85
2020/12/05 02:19:26;;;;;;;;;;;;;;;8.87;67.42;97022.36;1677678;84;26092;-85
2020/12/05 02:22:12;;;;;;;;;;;;;;;8.87;67.43;97017.98;1668548;85;24701;-86
2020/12/05 02:24:59;;;;;;;;;;;;;;;8.87;67.39;97006.23;1677302;84;20574;-85
2020/12/05 02:27:46;;;;;;;;;;;;;;;8.90;67.37;97019.48;1674997;85;25810;-85
2020/12/05 02:30:33;;;;;;;;;;;;;;;8.91;67.38;97010.70;1680596;84;23083;-85
2020/12/05 02:33:19;;;;;;;;;;;;;;;8.95;67.34;97008.17;1675982;84;26086;-85
2020/12/05 02:36:05;;;;;;;;;;;;;;;8.97;67.34;97010.17;1675840;85;25614;-86
2020/12/05 02:38:52;;;;;;;;;;;;;;;8.99;67.31;97012.19;1678455;84;20447;-85
2020/12/05 02:41:38;;;;;;;;;;;;;;;9.00;67.28;97012.55;1681023;84;25408;-85
2020/12/05 02:44:23;;;;;;;;;;;;;;;8.97;67.25;97016.22;1686204;83;22130;-85
2020/12/05 02:47:09;;;;;;;;;;;;;;;8.98;67.25;97013.97;1701328;83;26140;-86
2020/12/05 02:49:55;;;;;;;;;;;;;;;8.98;67.21;97014.45;1672596;85;24692;-85
2020/12/05 02:52:41;;;;;;;;;;;;;;;8.96;67.17;97015.88;1642920;86;20311;-85
2020/12/05 02:55:28;;;;;;;;;;;;;;;8.93;67.15;97016.15;1669080;85;25087;-85
2020/12/05 02:58:14;;;;;;;;;;;;;;;8.92;67.12;97020.19;1635777;86;22174;-85
2020/12/05 03:01:04;;;;;;;;;;;;;;;8.91;67.13;97014.14;1700560;83;26182;-86
2020/12/05 03:03:50;;;;;;;;;;;;;;;8.88;67.11;97012.28;1701886;83;24580;-85
2020/12/05 03:06:36;;;;;;;;;;;;;;;8.90;67.09;97017.70;1701420;83;20280;-86
2020/12/05 03:09:22;;;;;;;;;;;;;;;8.92;67.12;97017.58;1698767;83;25232;-86
2020/12/05 03:12:10;;;;;;;;;;;;;;;8.89;67.10;97017.85;1705270;83;23156;-86
2020/12/05 03:14:56;;;;;;;;;;;;;;;8.87;67.09;97015.84;1701101;83;26136;-86
2020/12/05 03:17:43;;;;;;;;;;;;;;;8.86;67.11;97003.75;1700286;83;24618;-86
2020/12/05 03:20:29;;;;;;;;;;;;;;;8.86;67.10;97018.09;1698715;83;20325;-85
2020/12/05 03:23:16;;;;;;;;;;;;;;;8.87;67.08;97010.63;1701564;83;26200;-85
2020/12/05 03:26:02;;;;;;;;;;;;;;;8.87;67.10;97023.20;1699472;83;21342;-85
2020/12/05 03:28:48;;;;;;;;;;;;;;;8.89;67.11;97021.26;1669422;83;26149;-86
2020/12/05 03:31:46;;;;;;;;;;;;;;;8.92;67.11;97017.10;1672106;85;24632;-85
2020/12/05 03:34:28;;;;;;;;;;;;;;;8.90;67.11;97022.92;1668471;85;20317;-85
2020/12/05 03:37:15;;;;;;;;;;;;;;;8.93;67.10;97020.06;1673481;84;24997;-85
2020/12/05 03:40:02;;;;;;;;;;;;;;;8.98;67.07;97017.05;1678510;85;23043;-85
2020/12/05 03:42:49;;;;;;;;;;;;;;;8.98;67.05;96998.31;1644450;86;26198;-86
2020/12/05 03:45:35;;;;;;;;;;;;;;;8.98;67.04;97024.41;1700556;82;25851;-86
2020/12/05 03:48:21;;;;;;;;;;;;;;;8.98;67.03;97014.45;1656394;85;20531;-85
2020/12/05 03:51:09;;;;;;;;;;;;;;;8.99;67.02;97023.93;1645120;87;25232;-86
2020/12/05 03:53:54;;;;;;;;;;;;;;;8.98;67.01;97017.05;1646421;87;22143;-86
2020/12/05 03:56:41;;;;;;;;;;;;;;;9.00;66.98;97014.64;1646558;86;26195;-86
2020/12/05 03:59:26;;;;;;;;;;;;;;;9.05;66.97;97034.67;1644898;87;24588;-86
2020/12/05 04:02:12;;;;;;;;;;;;;;;9.08;66.98;97034.39;1646417;86;20320;-85
2020/12/05 04:04:58;;;;;;;;;;;;;;;9.08;66.98;97033.09;1646501;87;26090;-85
2020/12/05 04:07:49;;;;;;;;;;;;;;;9.08;66.97;97043.53;1646535;87;22103;-85
2020/12/05 04:10:36;;;;;;;;;;;;;;;9.08;66.93;97046.61;1646425;86;27084;-86
2020/12/05 04:13:27;;;;;;;;;;;;;;;9.10;66.92;97046.02;1646274;86;24568;-85
2020/12/05 04:16:13;;;;;;;;;;;;;;;9.08;66.90;97045.31;1646325;87;20440;-85
2020/12/05 04:18:59;;;;;;;;;;;;;;;9.08;66.89;97033.56;1646348;87;25172;-85
2020/12/05 04:21:45;;;;;;;;;;;;;;;9.08;66.87;97033.09;1644946;87;22170;-84
2020/12/05 04:24:32;;;;;;;;;;;;;;;9.09;66.86;97032.14;1646563;87;27066;-85
2020/12/05 04:27:18;;;;;;;;;;;;;;;9.12;66.84;97040.16;1646302;87;24635;-85
2020/12/05 04:30:05;;;;;;;;;;;;;;;9.13;66.84;97040.05;1611798;87;20227;-85
2020/12/05 04:32:51;;;;;;;;;;;;;;;9.15;66.84;97035.53;1646496;87;25348;-85
2020/12/05 04:35:39;;;;;;;;;;;;;;;9.16;66.81;97024.61;1646528;87;22097;-84
2020/12/05 04:38:25;;;;;;;;;;;;;;;9.17;66.81;97035.37;1656431;85;27162;-85
2020/12/05 04:41:13;;;;;;;;;;;;;;;9.18;66.75;97009.15;1637960;87;25736;-86
2020/12/05 04:43:59;;;;;;;;;;;;;;;9.18;66.74;97016.16;1659466;85;20381;-85
2020/12/05 04:46:45;;;;;;;;;;;;;;;9.14;66.71;97010.38;1661483;85;25203;-86
2020/12/05 04:49:31;;;;;;;;;;;;;;;9.16;66.68;97015.48;1645144;87;22372;-85
2020/12/05 04:52:17;;;;;;;;;;;;;;;9.17;66.66;97004.88;1646436;87;26221;-85
2020/12/05 04:55:04;;;;;;;;;;;;;;;9.21;66.66;97009.38;1646462;86;24691;-85
2020/12/05 04:57:50;;;;;;;;;;;;;;;9.24;66.64;97006.48;1644159;87;20277;-86
2020/12/05 05:00:36;;;;;;;;;;;;;;;9.28;66.62;97010.47;1646501;87;25350;-85
2020/12/05 05:03:24;;;;;;;;;;;;;;;9.27;66.59;97002.32;1646603;87;22212;-85
2020/12/05 05:06:10;;;;;;;;;;;;;;;9.26;66.58;97003.27;1646558;87;26102;-86
2020/12/05 05:08:56;;;;;;;;;;;;;;;9.29;66.55;96996.47;1646273;87;24619;-85
2020/12/05 05:11:42;;;;;;;;;;;;;;;9.32;66.57;96994.91;1646354;86;20329;-85
2020/12/05 05:14:32;;;;;;;;;;;;;;;9.37;66.54;97010.16;1646390;87;25947;-85
2020/12/05 05:17:18;;;;;;;;;;;;;;;9.41;66.52;96992.78;1646502;86;22140;-85
2020/12/05 05:20:04;;;;;;;;;;;;;;;9.40;66.49;96988.99;1646496;87;26138;-85
2020/12/05 05:22:51;;;;;;;;;;;;;;;9.43;66.50;96996.58;1646525;87;24695;-85
2020/12/05 05:25:37;;;;;;;;;;;;;;;9.47;66.45;96979.67;1646368;87;20285;-86
2020/12/05 05:28:24;;;;;;;;;;;;;;;9.51;66.42;96985.78;1646371;87;25388;-85
2020/12/05 05:31:17;;;;;;;;;;;;;;;9.53;66.41;96995.63;1644926;86;22409;-85
2020/12/05 05:34:02;;;;;;;;;;;;;;;9.53;66.38;96982.56;1646298;86;26426;-85
2020/12/05 05:36:48;;;;;;;;;;;;;;;9.53;66.34;96994.32;1646381;86;24631;-85
2020/12/05 05:39:36;;;;;;;;;;;;;;;9.51;66.32;96993.62;1646435;87;20277;-85
2020/12/05 05:42:22;;;;;;;;;;;;;;;9.53;66.29;97007.86;1646286;87;25118;-85
2020/12/05 05:45:09;;;;;;;;;;;;;;;9.55;66.29;97019.80;1657462;84;23112;-86
2020/12/05 05:47:59;;;;;;;;;;;;;;;9.53;66.26;97007.38;1686676;84;27202;-85
2020/12/05 05:50:44;;;;;;;;;;;;;;;9.54;66.24;97016.87;1684502;84;24583;-85
2020/12/05 05:53:31;;;;;;;;;;;;;;;9.56;66.20;96971.84;1679652;83;20267;-85
2020/12/05 05:56:19;;;;;;;;;;;;;;;9.59;66.19;96959.00;1685750;84;25324;-85
2020/12/05 05:59:05;;;;;;;;;;;;;;;9.57;66.16;96956.52;1685192;84;22154;-85
2020/12/05 06:01:51;;;;;;;;;;;;;;;9.61;66.14;96974.86;1682963;84;26074;-85
2020/12/05 06:04:37;;;;;;;;;;;;;;;9.61;66.11;96970.11;1678123;84;24601;-85
2020/12/05 06:07:22;;;;;;;;;;;;;;;9.60;66.10;96982.34;1671678;83;20572;-85
2020/12/05 06:10:08;;;;;;;;;;;;;;;9.58;66.08;96997.83;1682256;84;25190;-85
2020/12/05 06:12:54;;;;;;;;;;;;;;;9.61;66.06;97002.77;1683890;84;22262;-85
2020/12/05 06:15:40;;;;;;;;;;;;;;;9.59;66.07;97008.14;1671172;85;25968;-86
2020/12/05 06:18:26;;;;;;;;;;;;;;;9.56;66.05;97029.29;1682248;84;24690;-85
2020/12/05 06:21:12;;;;;;;;;;;;;;;9.57;66.03;97017.06;1683230;84;21212;-85
2020/12/05 06:23:58;;;;;;;;;;;;;;;9.59;66.04;97030.82;1679744;84;25196;-85
2020/12/05 06:26:46;;;;;;;;;;;;;;;9.57;66.00;97023.11;1679824;84;22156;-84
2020/12/05 06:29:33;;;;;;;;;;;;;;;9.58;65.98;97036.52;1682238;84;27080;-85
2020/12/05 06:32:19;;;;;;;;;;;;;;;9.60;65.97;97040.31;1678353;84;24682;-85
2020/12/05 06:35:04;;;;;;;;;;;;;;;9.61;65.96;97041.46;1676205;84;20268;-84
2020/12/05 06:37:50;;;;;;;;;;;;;;;9.60;65.95;97050.25;1678117;84;25088;-84
2020/12/05 06:40:36;;;;;;;;;;;;;;;9.62;65.93;97064.49;1680383;84;22158;-84
2020/12/05 06:43:22;;;;;;;;;;;;;;;9.61;65.94;97066.75;1650966;84;26390;-84
2020/12/05 06:46:08;;;;;;;;;;;;;;;9.59;65.93;97072.61;1683231;84;24630;-84
2020/12/05 06:48:56;;;;;;;;;;;;;;;9.57;65.92;97066.20;1681872;84;20550;-84
2020/12/05 06:51:42;;;;;;;;;;;;;;;9.57;65.90;97075.83;1680092;84;25092;-84
2020/12/05 06:54:27;;;;;;;;;;;;;;;9.55;65.91;97066.81;1684430;84;22261;-84
2020/12/05 06:57:14;;;;;;;;;;;;;;;9.55;65.91;97071.20;1685851;84;26339;-86
2020/12/05 07:00:00;;;;;;;;;;;;;;;9.55;65.89;97083.78;1687254;84;25470;-85
2020/12/05 07:02:46;;;;;;;;;;;;;;;9.55;65.91;97083.78;1684137;84;20332;-84
2020/12/05 07:05:32;;;;;;;;;;;;;;;9.53;65.91;97093.56;1682350;84;25187;-85
2020/12/05 07:08:18;;;;;;;;;;;;;;;9.53;65.91;97105.31;1685231;84;23138;-85
2020/12/05 07:11:04;;;;;;;;;;;;;;;9.55;65.91;97111.68;1683450;84;26426;-84
2020/12/05 07:13:52;;;;;;;;;;;;;;;9.58;65.92;97123.19;1681729;84;24612;-85
2020/12/05 07:16:38;;;;;;;;;;;;;;;9.56;65.95;97127.70;1684130;84;20188;-85
2020/12/05 07:19:24;;;;;;;;;;;;;;;9.54;65.94;97136.17;1678465;84;25114;-85
2020/12/05 07:22:13;;;;;;;;;;;;;;;9.53;65.94;97152.80;1686140;84;22158;-85
2020/12/05 07:25:00;;;;;;;;;;;;;;;9.52;65.95;97158.49;1677458;84;26289;-85
2020/12/05 07:27:46;;;;;;;;;;;;;;;9.49;65.97;97154.02;1683523;84;25647;-85
2020/12/05 07:30:32;;;;;;;;;;;;;;;9.53;65.95;97170.59;1685070;84;20501;-85
2020/12/05 07:33:19;;;;;;;;;;;;;;;9.52;65.96;97165.50;1682945;84;25104;-85
2020/12/05 07:36:04;;;;;;;;;;;;;;;9.55;65.99;97171.27;1684499;84;22264;-86
2020/12/05 07:38:51;;;;;;;;;;;;;;;9.52;65.97;97178.08;1681252;84;26353;-86
2020/12/05 07:41:37;;;;;;;;;;;;;;;9.50;65.98;97165.63;1684321;84;24771;-85
2020/12/05 07:44:23;;;;;;;;;;;;;;;9.49;65.99;97173.10;1678989;84;20636;-84
2020/12/05 07:47:09;;;;;;;;;;;;;;;9.52;66.00;97182.00;1690021;83;25976;-86
2020/12/05 07:49:56;;;;;;;;;;;;;;;9.55;66.00;97186.11;1698445;83;22153;-85
2020/12/05 07:52:44;;;;;;;;;;;;;;;9.59;66.03;97192.75;1655978;85;26261;-85
2020/12/05 07:55:30;;;;;;;;;;;;;;;9.59;66.04;97201.42;1657868;85;25681;-85
2020/12/05 07:58:16;;;;;;;;;;;;;;;9.57;66.05;97191.57;1632282;87;20436;-85
2020/12/05 08:01:02;;;;;;;;;;;;;;;9.58;66.04;97198.45;1666199;85;25523;-85
2020/12/05 08:03:48;;;;;;;;;;;;;;;9.60;66.04;97193.91;1660866;85;22147;-85
2020/12/05 08:06:34;;;;;;;;;;;;;;;9.60;66.04;97190.50;1634053;87;26322;-84
2020/12/05 08:09:20;;;;;;;;;;;;;;;9.61;66.05;97184.28;1689089;83;24584;-84
2020/12/05 08:12:06;;;;;;;;;;;;;;;9.63;66.07;97185.00;1688592;83;20270;-85
2020/12/05 08:14:52;;;;;;;;;;;;;;;9.64;66.06;97192.70;1695971;83;25129;-84
2020/12/05 08:17:37;;;;;;;;;;;;;;;9.65;66.08;97184.39;1664214;85;22431;-84
2020/12/05 08:20:23;;;;;;;;;;;;;;;9.68;66.07;97181.50;1631731;87;26990;-85
2020/12/05 08:23:11;;;;;;;;;;;;;;;9.72;66.09;97178.14;1657423;85;24735;-85
2020/12/05 08:25:57;;;;;;;;;;;;;;;9.75;66.10;97167.44;1628236;87;20287;-84
2020/12/05 08:28:42;;;;;;;;;;;;;;;9.76;66.06;97170.41;1689898;83;25167;-84
2020/12/05 08:31:28;;;;;;;;;;;;;;;9.78;66.08;97177.61;1689402;83;23050;-84
2020/12/05 08:34:14;;;;;;;;;;;;;;;9.80;66.08;97186.98;1689691;83;26182;-84
2020/12/05 08:37:00;;;;;;;;;;;;;;;9.87;66.06;97178.94;1661082;85;24871;-84
2020/12/05 08:39:46;;;;;;;;;;;;;;;9.92;66.04;97187.23;1632397;86;20686;-84
2020/12/05 08:42:32;;;;;;;;;;;;;;;9.94;66.07;97193.61;1688017;83;25910;-84
2020/12/05 08:45:17;;;;;;;;;;;;;;;9.98;66.05;97202.86;1657603;85;22161;-84
2020/12/05 08:48:05;;;;;;;;;;;;;;;10.00;66.00;97191.30;1634356;86;26393;-84
2020/12/05 08:50:51;;;;;;;;;;;;;;;10.03;66.00;97203.28;1662117;85;25760;-85
2020/12/05 08:53:39;;;;;;;;;;;;;;;10.10;65.93;97213.53;1634941;86;20212;-85
2020/12/05 08:56:25;;;;;;;;;;;;;;;10.13;65.91;97213.76;1631815;87;25374;-85
2020/12/05 08:59:14;;;;;;;;;;;;;;;10.17;65.89;97231.69;1659306;85;22156;-84
2020/12/05 09:02:00;;;;;;;;;;;;;;;10.18;65.90;97223.36;1654899;85;27161;-84
2020/12/05 09:04:48;;;;;;;;;;;;;;;10.22;65.85;97218.20;1631261;87;24630;-84
2020/12/05 09:07:36;;;;;;;;;;;;;;;10.22;65.82;97212.50;1688188;83;20642;-84
2020/12/05 09:10:22;;;;;;;;;;;;;;;10.24;65.79;97217.13;1694876;83;25909;-84
2020/12/05 09:13:09;;;;;;;;;;;;;;;10.27;65.75;97198.53;1691327;83;22226;-84
2020/12/05 09:15:55;;;;;;;;;;;;;;;10.32;65.75;97200.27;1690619;83;26157;-84
2020/12/05 09:18:41;;;;;;;;;;;;;;;10.37;65.71;97209.00;1694605;83;24780;-84
2020/12/05 09:21:28;;;;;;;;;;;;;;;10.37;65.68;97209.83;1689615;83;20564;-83
2020/12/05 09:24:17;;;;;;;;;;;;;;;10.41;65.66;97213.85;1659773;84;25242;-84
2020/12/05 09:27:03;;;;;;;;;;;;;;;10.44;65.60;97209.64;1631157;87;22230;-84
2020/12/05 09:29:48;;;;;;;;;;;;;;;10.47;65.55;97209.36;1688563;83;26180;-84
2020/12/05 09:32:34;;;;;;;;;;;;;;;10.52;65.52;97201.60;1691626;83;25645;-84
2020/12/05 09:35:21;;;;;;;;;;;;;;;10.56;65.46;97192.52;1692722;83;20520;-84
2020/12/05 09:38:07;;;;;;;;;;;;;;;10.61;65.45;97209.93;1689012;83;25094;-84
2020/12/05 09:40:57;;;;;;;;;;;;;;;10.63;65.44;97212.77;1685657;83;22396;-84
2020/12/05 09:43:43;;;;;;;;;;;;;;;10.63;65.40;97206.23;1661381;85;26115;-84
2020/12/05 09:46:28;;;;;;;;;;;;;;;10.68;65.35;97216.27;1640126;86;24971;-83
2020/12/05 09:49:15;;;;;;;;;;;;;;;10.76;65.32;97217.23;1692368;84;20288;-85
2020/12/05 09:52:01;;;;;;;;;;;;;;;10.83;65.27;97222.74;1666419;85;25148;-85
2020/12/05 09:54:48;;;;;;;;;;;;;;;10.83;65.25;97220.95;1689636;84;22126;-85
2020/12/05 09:57:34;;;;;;;;;;;;;;;10.90;65.21;97212.07;1659494;85;26313;-85
2020/12/05 10:00:20;;;;;;;;;;;;;;;10.92;65.18;97211.43;1691596;84;25382;-84
2020/12/05 10:03:06;;;;;;;;;;;;;;;10.98;65.15;97212.19;1664403;85;20659;-85
2020/12/05 10:05:52;;;;;;;;;;;;;;;11.04;65.07;97222.10;1692252;84;25213;-84
2020/12/05 10:08:39;;;;;;;;;;;;;;;11.11;65.07;97207.50;1666049;85;22441;-84
2020/12/05 10:11:28;;;;;;;;;;;;;;;11.17;65.04;97210.03;1687592;84;26291;-84
2020/12/05 10:14:15;;;;;;;;;;;;;;;11.20;65.01;97207.12;1692094;84;24905;-84
2020/12/05 10:17:01;;;;;;;;;;;;;;;11.19;64.94;97209.39;1669358;85;20993;-84
2020/12/05 10:19:48;;;;;;;;;;;;;;;11.21;64.89;97203.55;1684181;84;25628;-84
2020/12/05 10:22:35;;;;;;;;;;;;;;;11.24;64.84;97209.31;1690596;84;22170;-84
2020/12/05 10:25:26;;;;;;;;;;;;;;;11.31;64.81;97212.20;1690719;84;26139;-84
2020/12/05 10:28:12;;;;;;;;;;;;;;;11.37;64.78;97219.98;1666501;84;25104;-84
2020/12/05 10:30:59;;;;;;;;;;;;;;;11.43;64.76;97224.66;1691118;84;20329;-84
2020/12/05 10:33:45;;;;;;;;;;;;;;;11.46;64.72;97235.66;1655460;86;25138;-84
2020/12/05 10:36:32;;;;;;;;;;;;;;;11.50;64.65;97244.09;1672232;85;22332;-84
2020/12/05 10:39:18;;;;;;;;;;;;;;;11.53;64.60;97245.92;1665208;85;27275;-84
2020/12/05 10:42:04;;;;;;;;;;;;;;;11.61;64.54;97253.09;1667431;85;24785;-83
2020/12/05 10:44:50;;;;;;;;;;;;;;;11.69;64.50;97260.56;1689503;84;20277;-84
2020/12/05 10:47:38;;;;;;;;;;;;;;;11.67;64.46;97262.49;1684871;84;26110;-84
2020/12/05 10:50:24;;;;;;;;;;;;;;;11.69;64.38;97271.53;1683337;84;23062;-86
2020/12/05 10:53:14;;;;;;;;;;;;;;;11.72;64.33;97256.84;1686588;83;27318;-86
2020/12/05 10:56:00;;;;;;;;;;;;;;;11.73;64.26;97257.20;1680453;84;24615;-85
2020/12/05 10:58:47;;;;;;;;;;;;;;;11.81;64.20;97267.80;1679632;84;20358;-86
2020/12/05 11:01:33;;;;;;;;;;;;;;;11.87;64.18;97265.09;1685608;84;25096;-85
2020/12/05 11:04:19;;;;;;;;;;;;;;;11.86;64.12;97255.58;1680303;85;22177;-84
2020/12/05 11:07:05;;;;;;;;;;;;;;;11.88;64.02;97257.09;1681582;84;26177;-85
2020/12/05 11:09:51;;;;;;;;;;;;;;;11.92;63.99;97249.77;1678669;84;24906;-85
2020/12/05 11:12:36;;;;;;;;;;;;;;;11.97;63.96;97243.59;1675836;84;20527;-85
2020/12/05 11:15:22;;;;;;;;;;;;;;;11.99;63.93;97250.84;1675327;84;25869;-84
2020/12/05 11:18:08;;;;;;;;;;;;;;;12.03;63.90;97249.58;1676050;84;21985;-84
2020/12/05 11:23:53;;;;;;;;;;;;;;;12.07;63.79;97253.07;1720804;78;22172;-84
2020/12/05 11:26:40;;;;;;;;;;;;;;;12.16;63.77;97260.05;1798612;78;20556;-84
2020/12/05 11:29:28;;;;;;;;;;;;;;;12.17;63.70;97260.88;1811470;78;25880;-84
2020/12/05 11:32:14;;;;;;;;;;;;;;;12.19;63.65;97267.30;1807235;78;22150;-83
2020/12/05 11:35:02;;;;;;;;;;;;;;;12.17;63.59;97266.13;1795243;78;26162;-84
2020/12/05 11:37:48;;;;;;;;;;;;;;;12.13;63.52;97266.91;1780045;78;24402;-84
2020/12/05 11:40:35;;;;;;;;;;;;;;;12.14;63.45;97256.77;1806271;78;20657;-85
2020/12/05 11:43:22;;;;;;;;;;;;;;;12.22;63.42;97258.64;1771329;78;24898;-84
2020/12/05 11:46:09;;;;;;;;;;;;;;;12.25;63.39;97252.30;1803894;78;22319;-84
2020/12/05 11:48:56;;;;;;;;;;;;;;;12.28;63.34;97252.82;1808958;78;27017;-85
2020/12/05 11:51:43;;;;;;;;;;;;;;;12.32;63.29;97262.08;1802405;78;24860;-84
2020/12/05 11:54:30;;;;;;;;;;;;;;;12.35;63.24;97268.80;1805042;78;20174;-84
2020/12/05 11:57:17;;;;;;;;;;;;;;;12.33;63.19;97276.81;1811659;78;25281;-85
2020/12/05 12:00:03;;;;;;;;;;;;;;;12.33;63.13;97269.46;1800795;78;22202;-84
2020/12/05 12:02:50;;;;;;;;;;;;;;;12.31;63.05;97274.84;1805693;78;26116;-85
2020/12/05 12:05:37;;;;;;;;;;;;;;;12.29;62.99;97278.57;1782492;78;24713;-84
2020/12/05 12:08:23;;;;;;;;;;;;;;;12.30;62.90;97288.09;1802170;78;20621;-84
2020/12/05 12:11:10;;;;;;;;;;;;;;;12.32;62.81;97286.17;1800120;78;25116;-84
2020/12/05 12:13:56;;;;;;;;;;;;;;;12.31;62.76;97288.45;1799815;78;22247;-84
2020/12/05 12:16:45;;;;;;;;;;;;;;;12.32;62.71;97277.81;1809478;78;26115;-84
2020/12/05 12:19:32;;;;;;;;;;;;;;;12.35;62.67;97284.06;1776631;78;24738;-85
2020/12/05 12:22:19;;;;;;;;;;;;;;;12.37;62.66;97285.23;1801272;78;20360;-84
2020/12/05 12:25:06;;;;;;;;;;;;;;;12.35;62.61;97280.13;1804742;78;25101;-84
2020/12/05 12:27:52;;;;;;;;;;;;;;;12.34;62.57;97285.52;1803075;78;22148;-84
2020/12/05 12:30:39;;;;;;;;;;;;;;;12.36;62.53;97288.83;1802983;78;26099;-84
2020/12/05 12:33:27;;;;;;;;;;;;;;;12.35;62.47;97288.00;1800557;78;25501;-85
2020/12/05 12:36:14;;;;;;;;;;;;;;;12.37;62.44;97291.80;1786881;78;20248;-84
2020/12/05 12:39:01;;;;;;;;;;;;;;;12.35;62.42;97288.00;1777458;78;25142;-85
2020/12/05 12:41:48;;;;;;;;;;;;;;;12.33;62.37;97300.42;1775878;78;22149;-85
2020/12/05 12:44:34;;;;;;;;;;;;;;;12.32;62.31;97305.36;1810746;78;26109;-85
2020/12/05 12:47:38;;;;;;;;;;;;;;;12.28;62.22;97309.22;1806493;78;25582;-85
2020/12/05 12:50:23;;;;;;;;;;;;;;;12.22;62.14;97307.69;1804583;78;20320;-85
2020/12/05 12:53:11;;;;;;;;;;;;;;;12.19;62.06;97319.28;1802322;78;25047;-84
2020/12/05 12:55:59;;;;;;;;;;;;;;;12.14;61.99;97321.03;1783273;78;22138;-85
2020/12/05 12:58:45;;;;;;;;;;;;;;;12.13;61.96;97327.72;1812298;78;26340;-84
2020/12/05 13:01:32;;;;;;;;;;;;;;;12.11;61.94;97327.85;1793608;78;24091;-85
2020/12/05 13:04:06;;;;;;;;;;;;;;;12.08;61.94;97327.33;1754777;80;20450;-85
2020/12/05 13:06:54;;;;;;;;;;;;;;;12.05;61.91;97331.08;1719102;82;26565;-85
2020/12/05 13:09:41;;;;;;;;;;;;;;;12.05;61.91;97341.56;1752432;81;22392;-85
2020/12/05 13:12:30;;;;;;;;;;;;;;;12.03;61.89;97339.56;1757952;80;26099;-84
2020/12/05 13:15:17;;;;;;;;;;;;;;;12.03;61.86;97341.35;1750180;81;24590;-84
2020/12/05 13:18:05;;;;;;;;;;;;;;;12.00;61.84;97349.01;1701997;81;20544;-84
2020/12/05 13:20:51;;;;;;;;;;;;;;;11.99;61.83;97350.48;1729670;81;25264;-84
2020/12/05 13:23:38;;;;;;;;;;;;;;;12.00;61.81;97344.27;1758517;81;22096;-84
2020/12/05 13:26:24;;;;;;;;;;;;;;;11.98;61.83;97349.66;1745468;81;27231;-84
2020/12/05 13:29:11;;;;;;;;;;;;;;;11.93;61.83;97352.36;1739659;80;24868;-84
2020/12/05 13:31:57;;;;;;;;;;;;;;;11.93;61.79;97353.19;1755271;81;20757;-84
2020/12/05 13:34:44;;;;;;;;;;;;;;;11.94;61.79;97354.84;1728904;80;25916;-84
2020/12/05 13:37:31;;;;;;;;;;;;;;;11.98;61.79;97356.69;1760795;80;22249;-84
2020/12/05 13:40:18;;;;;;;;;;;;;;;11.96;61.80;97364.69;1732849;80;26135;-84
2020/12/05 13:43:06;;;;;;;;;;;;;;;11.95;61.77;97368.75;1735610;80;24361;-84
2020/12/05 13:45:53;;;;;;;;;;;;;;;11.97;61.78;97372.91;1758871;80;20248;-84
2020/12/05 13:48:39;;;;;;;;;;;;;;;11.92;61.76;97372.50;1763484;80;25343;-84
2020/12/05 13:51:26;;;;;;;;;;;;;;;11.89;61.71;97378.02;1741611;81;21939;-84
2020/12/05 13:54:13;;;;;;;;;;;;;;;11.88;61.69;97376.86;1757990;80;26085;-85
2020/12/05 13:57:00;;;;;;;;;;;;;;;11.88;61.68;97376.86;1749649;80;24476;-84
2020/12/05 13:59:47;;;;;;;;;;;;;;;11.86;61.64;97374.86;1758316;80;20533;-84
2020/12/05 14:02:34;;;;;;;;;;;;;;;11.84;61.65;97374.19;1753083;80;25235;-84
2020/12/05 14:05:20;;;;;;;;;;;;;;;11.83;61.59;97377.29;1761590;80;22153;-84
2020/12/05 14:08:07;;;;;;;;;;;;;;;11.80;61.55;97375.41;1765084;80;27040;-84
2020/12/05 14:10:55;;;;;;;;;;;;;;;11.74;61.54;97371.08;1711414;81;25016;-84
2020/12/05 14:13:41;;;;;;;;;;;;;;;11.69;61.51;97381.60;1721593;82;20410;-84
2020/12/05 14:16:33;;;;;;;;;;;;;;;11.68;61.49;97385.19;1748146;80;25190;-84
2020/12/05 14:19:20;;;;;;;;;;;;;;;11.63;61.49;97389.55;1724085;82;22189;-88
2020/12/05 14:22:06;;;;;;;;;;;;;;;11.59;61.45;97393.41;1802876;78;27066;-87
2020/12/05 14:24:41;;;;;;;;;;;;;;;11.56;61.42;97392.88;1759727;80;24612;-88
2020/12/05 14:27:30;;;;;;;;;;;;;;;11.50;61.42;97402.11;1737180;79;20260;-87
2020/12/05 14:30:17;;;;;;;;;;;;;;;11.43;61.40;97391.83;1770009;80;25277;-87
2020/12/05 14:33:03;;;;;;;;;;;;;;;11.40;61.39;97411.73;1725585;81;21903;-88
2020/12/05 14:35:50;;;;;;;;;;;;;;;11.40;61.39;97415.67;1749917;81;26498;-87